Woodland, Minnesota
Current Conditions -  °F | °C
As of 12:53 AM on Sunday 26 Oct 2014 (Local Time) from KMIC Reporting Station
Clear Clear  
Wind Chill: 41°   Ceiling: Unl
Heat Index: 41°   Visibility: 10mi
Dew Point: 29°   Wind: 0mph
Humidity: 62%   Direction: NA
Pressure: 30.03"   Gusts: NA
Location:  44.9781°N, 93.5263°W
Report Text: KMIC 260553Z AUTO 00000KT 10SM CLR 05/M02 A3003 RMK AO2 SLP174 T00501017 10133 20033 401830033 57002
Loading
Personal Weather Stations






























Interactive Weather Map
Tropical Storm Tracking
New forecast layout! Learn more

10-Day Weather Forecast

Advertisements
Track Severe Weather on mobile